Nearby METAR Reports

 

KLBE - Latrobe/Westmorl, Pennsylvania, USA
Distance from station: SE 16mi, 26km
Updated: Fri, 27-Mar-2015 10:55am EDT
Overcast
Overcast
 Wind from calm
Wind: Calm
Temperature: 36°F , 2°C
Dew Point: 30°F , -1°C
Humidity: 81%
Barometer: 29.86 inHg , 1011.2 hPa
Clouds: Overcast
Visibility: 7 miles , 11 km
Cloud details: Partly cloudy 2400 ft
Overcast 4200 ft
2015/03/27 14:55 KLBE 271455Z 00000KT 7SM SCT024 OVC042 02/M01 A2986
KAGC - Pittsburgh/Alleg, Pennsylvania, USA
Distance from station: WSW 18mi, 30km
Updated: Fri, 27-Mar-2015 10:53am EDT
Overcast
Overcast
 Wind from NNW
Wind: NNW 13 mph , 20 km/h, Gust: 17 mph , 28 km/h
Temperature: 34°F , 1°C
Wind Chill: 25°F , -4°C
Dew Point: 23°F , -5°C
Humidity: 65%
Barometer: 29.85 inHg , 1010.8 hPa
Clouds: Overcast
Visibility: 10 miles , 16 km
Cloud details: Few Clouds 2300 ft
Overcast 4200 ft
2015/03/27 14:53 KAGC 271453Z 33011G15KT 10SM FEW023 OVC042 01/M05 A2985 RMK AO2 SLP122 T00111050 53005
 
KBTP - Butler Co., Pennsylvania, USA
Distance from station: NW 29mi, 47km
Updated: Fri, 27-Mar-2015 11:15am EDT
Overcast
Overcast
 Wind from NNW
Wind: NNW 7 mph , 11 km/h
Temperature: 32°F , 0°C
Wind Chill: 25°F , -4°C
Dew Point: 25°F , -4°C
Humidity: 75%
Barometer: 29.88 inHg , 1011.9 hPa
Clouds: Overcast
Visibility: 10 miles , 16 km
Cloud details: Mostly cloudy 1900 ft
Mostly cloudy 2800 ft
Overcast 4500 ft
2015/03/27 15:15 KBTP 271515Z AUTO 34006KT 10SM BKN019 BKN028 OVC045 00/M04 A2988 RMK AO1
KIDI - Indiana/Stewart, Pennsylvania, USA
Distance from station: ENE 29mi, 47km
Updated: Fri, 27-Mar-2015 11:15am EDT
Overcast
Overcast
 Wind from WNW
Wind: WNW 10 mph , 17 km/h
Temperature: 36°F , 2°C
Wind Chill: 29°F , -2°C
Dew Point: 27°F , -3°C
Humidity: 70%
Barometer: 29.87 inHg , 1011.5 hPa
Clouds: Overcast
Visibility: 10 miles , 16 km
Cloud details: Few Clouds 2000 ft
Few Clouds 2900 ft
Overcast 4400 ft
2015/03/27 15:15 KIDI 271515Z AUTO 30009KT 10SM FEW020 FEW029 OVC044 02/M03 A2987 RMK A01
 
KPIT - Pittsburgh, Pennsylvania, USA
Distance from station: W 36mi, 57km
Updated: Fri, 27-Mar-2015 10:58am EDT
Light snow, Overcast
Light snow, Overcast
 Wind from N
Wind: N 14 mph , 22 km/h
Temperature: 34°F , 1°C
Wind Chill: 25°F , -4°C
Dew Point: 27°F , -3°C
Humidity: 75%
Barometer: 29.87 inHg , 1011.5 hPa
Summary: Light Snow
Clouds: Overcast
Visibility: 2 miles , 3 km
Cloud details: Mostly cloudy 2200 ft
Mostly cloudy 2800 ft
Overcast 4400 ft
2015/03/27 14:58 KPIT 271458Z 35012KT 2SM R28R/3500VP6000FT -SN BKN022 BKN028 OVC044 01/M03 A2987 RMK AO2 P0000 T00061028
KJST - Johnstown, Pennsylvania, USA
Distance from station: ESE 41mi, 66km
Updated: Fri, 27-Mar-2015 10:54am EDT
Overcast
Overcast
 Wind from NW
Wind: NW 10 mph , 17 km/h
Temperature: 32°F , 0°C
Wind Chill: 24°F , -4°C
Dew Point: 25°F , -4°C
Humidity: 75%
Barometer: 29.77 inHg , 1008.1 hPa
Clouds: Overcast
Visibility: 10 miles , 16 km
Cloud details: Few Clouds 1500 ft
Partly cloudy 2000 ft
Overcast 3100 ft
2015/03/27 14:54 KJST 271454Z AUTO 31009KT 10SM FEW015 SCT020 OVC031 00/M04 A2977 RMK AO2 SLP099 T00001039 56002
 
KAFJ - Washington, Pennsylvania, USA
Distance from station: WSW 42mi, 68km
Updated: Fri, 27-Mar-2015 11:15am EDT
Overcast
Overcast
 Wind from NW
Wind: NW 8 mph , 13 km/h
Temperature: 36°F , 2°C
Wind Chill: 30°F , -1°C
Dew Point: 27°F , -3°C
Humidity: 70%
Barometer: 29.89 inHg , 1012.2 hPa
Clouds: Overcast
Visibility: 10 miles , 16 km
Cloud details: Few Clouds 2300 ft
Mostly cloudy 3500 ft
Overcast 4400 ft
2015/03/27 15:15 KAFJ 271515Z AUTO 31007KT 10SM FEW023 BKN035 OVC044 02/M03 A2989 RMK AO1
KBVI - Beaver Falls Arp, Pennsylvania, USA
Distance from station: WNW 48mi, 77km
Updated: Fri, 27-Mar-2015 10:47am EDT
Overcast
Overcast
 Wind from NNW
Wind: NNW 9 mph , 15 km/h
Temperature: 30°F , -1°C
Wind Chill: 22°F , -6°C
Dew Point: 27°F , -3°C
Humidity: 86%
Barometer: 29.88 inHg , 1011.9 hPa
Clouds: Overcast
Visibility: 10 miles , 16 km
Cloud details: Overcast 1400 ft
2015/03/27 14:47 KBVI 271447Z 33008KT 10SM OVC014 M01/M03 A2988